Time;durP1;ratioP1;P1;durP2;ratioP2;P2;SDS_P1;SDS_P2;PMS_P1;PMS_P2;Temp;Humidity;BMP_temperature;BMP_pressure;BME280_temperature;BME280_humidity;BME280_pressure;Samples;Min_cycle;Max_cycle;Signal;HPM_P1;HPM_P2
2021/11/25 00:01:31;;;;;;;8.88;5.25;;;;;;;4.52;54.77;101254.12;1792775;78;21041;-70
2021/11/25 00:03:58;;;;;;;9.43;5.30;;;;;;;4.51;54.49;101252.44;1792734;78;21010;-68
2021/11/25 00:06:25;;;;;;;9.93;5.10;;;;;;;4.51;54.64;101245.92;1784100;78;21149;-71
2021/11/25 00:08:52;;;;;;;9.43;5.17;;;;;;;4.49;54.64;101242.08;1795524;78;21132;-69
2021/11/25 00:11:21;;;;;;;9.90;5.22;;;;;;;4.48;54.68;101241.67;1789430;78;21492;-71
2021/11/25 00:13:47;;;;;;;11.03;5.35;;;;;;;4.45;54.67;101244.39;1785386;78;21061;-69
2021/11/25 00:16:15;;;;;;;9.33;5.75;;;;;;;4.45;54.73;101236.58;1789303;78;21070;-68
2021/11/25 00:21:05;;;;;;;10.38;5.83;;;;;;;4.52;54.90;101243.69;1868404;75;22750;-67
2021/11/25 00:23:32;;;;;;;8.40;4.80;;;;;;;4.45;54.82;101245.70;1829379;77;21098;-68
2021/11/25 00:25:58;;;;;;;9.83;5.50;;;;;;;4.45;54.74;101245.27;1813494;77;21006;-70
2021/11/25 00:28:25;;;;;;;10.25;5.58;;;;;;;4.43;54.82;101240.55;1812593;77;21058;-69
2021/11/25 00:30:52;;;;;;;10.58;6.08;;;;;;;4.42;54.91;101238.87;1815204;77;21053;-67
2021/11/25 00:33:19;;;;;;;10.65;5.78;;;;;;;4.44;55.08;101240.95;1843403;77;21033;-67
2021/11/25 00:35:46;;;;;;;10.30;5.78;;;;;;;4.49;55.14;101239.47;1836131;77;21070;-66
2021/11/25 00:38:13;;;;;;;8.25;5.12;;;;;;;4.51;55.20;101236.34;1825312;77;21031;-68
2021/11/25 00:40:40;;;;;;;10.65;5.33;;;;;;;4.54;55.18;101232.30;1847703;77;21076;-69
2021/11/25 00:43:07;;;;;;;9.85;5.28;;;;;;;4.60;55.16;101232.03;1835093;77;21037;-66
2021/11/25 00:45:34;;;;;;;10.18;5.05;;;;;;;4.61;55.12;101233.73;1837514;77;21043;-66
2021/11/25 00:48:01;;;;;;;10.20;5.35;;;;;;;4.62;54.99;101231.97;1848761;77;20990;-67
2021/11/25 00:50:28;;;;;;;12.68;5.80;;;;;;;4.62;55.03;101236.75;1806207;77;21073;-68
2021/11/25 00:52:55;;;;;;;8.98;5.22;;;;;;;4.63;54.97;101233.67;1845047;77;20982;-67
2021/11/25 00:55:22;;;;;;;10.75;5.53;;;;;;;4.62;55.18;101229.36;1834728;77;21529;-66
2021/11/25 00:57:48;;;;;;;9.08;5.20;;;;;;;4.63;55.19;101230.61;1800830;77;21070;-67
2021/11/25 01:00:21;;;;;;;11.15;6.28;;;;;;;4.64;55.15;101236.22;1745937;78;21052;-68
2021/11/25 01:02:48;;;;;;;13.10;6.15;;;;;;;4.64;55.22;101235.39;1784948;78;23300;-68
2021/11/25 01:05:16;;;;;;;12.68;5.40;;;;;;;4.63;55.20;101229.30;1787099;78;21054;-67
2021/11/25 01:07:44;;;;;;;11.93;5.80;;;;;;;4.61;55.34;101231.59;1807092;77;21599;-68
2021/11/25 01:10:13;;;;;;;8.88;5.87;;;;;;;4.60;55.36;101232.50;1746672;80;21118;-67
2021/11/25 01:12:40;;;;;;;11.03;5.92;;;;;;;4.59;55.34;101230.36;1808150;77;21050;-67
2021/11/25 01:15:08;;;;;;;11.00;6.30;;;;;;;4.58;55.54;101228.64;1766768;80;21484;-67
2021/11/25 01:17:36;;;;;;;10.60;6.00;;;;;;;4.60;55.42;101232.03;1769308;80;21041;-66
2021/11/25 01:20:07;;;;;;;11.22;5.85;;;;;;;4.57;55.59;101224.36;1788693;78;21502;-68
2021/11/25 01:22:34;;;;;;;12.93;6.53;;;;;;;4.58;55.76;101223.44;1780161;78;21152;-67
2021/11/25 01:25:02;;;;;;;10.93;5.97;;;;;;;4.59;55.77;101219.06;1784549;79;21029;-66
2021/11/25 01:27:29;;;;;;;11.03;6.28;;;;;;;4.59;55.80;101222.53;1760512;79;21970;-66
2021/11/25 01:29:55;;;;;;;9.68;5.90;;;;;;;4.60;55.79;101219.46;1788234;79;21046;-67
2021/11/25 01:32:22;;;;;;;11.85;6.08;;;;;;;4.61;55.79;101222.01;1764218;79;21099;-67
2021/11/25 01:34:49;;;;;;;12.13;5.58;;;;;;;4.62;55.92;101215.89;1787427;79;21144;-65
2021/11/25 01:37:15;;;;;;;12.07;6.78;;;;;;;4.63;55.97;101217.57;1783194;79;21050;-64
2021/11/25 01:39:42;;;;;;;10.85;6.60;;;;;;;4.67;56.01;101215.68;1778486;79;21550;-66
2021/11/25 01:42:09;;;;;;;12.50;6.37;;;;;;;4.67;55.86;101219.59;1789497;79;21598;-65
2021/11/25 01:44:36;;;;;;;10.82;6.60;;;;;;;4.66;55.87;101217.91;1789040;79;21081;-65
2021/11/25 01:47:04;;;;;;;11.55;6.58;;;;;;;4.65;56.00;101212.30;1782518;79;21549;-65
2021/11/25 01:49:31;;;;;;;11.20;6.25;;;;;;;4.63;56.06;101221.48;1771309;79;21053;-65
2021/11/25 01:51:58;;;;;;;11.15;6.50;;;;;;;4.65;56.14;101224.86;1802921;79;21061;-65
2021/11/25 01:54:25;;;;;;;9.93;6.08;;;;;;;4.64;56.18;101218.44;1769744;79;21084;-67
2021/11/25 01:56:52;;;;;;;11.25;6.87;;;;;;;4.65;56.21;101221.42;1767979;80;21552;-66
2021/11/25 01:59:19;;;;;;;10.80;6.33;;;;;;;4.65;56.24;101220.95;1778771;78;21567;-68
2021/11/25 02:01:45;;;;;;;9.68;6.03;;;;;;;4.67;56.24;101221.36;1784336;80;21036;-67
2021/11/25 02:04:12;;;;;;;13.60;6.60;;;;;;;4.70;56.32;101221.23;1775210;79;21928;-67
2021/11/25 02:06:40;;;;;;;10.43;6.45;;;;;;;4.71;56.34;101221.17;1773151;78;21055;-68
2021/11/25 02:09:07;;;;;;;11.78;6.40;;;;;;;4.70;56.17;101214.72;1745557;80;21129;-67
2021/11/25 02:11:34;;;;;;;13.22;6.47;;;;;;;4.71;56.28;101215.09;1799976;77;21062;-67
2021/11/25 02:14:00;;;;;;;11.30;6.83;;;;;;;4.70;56.39;101214.72;1804409;77;21083;-68
2021/11/25 02:16:27;;;;;;;11.43;6.37;;;;;;;4.70;56.37;101210.80;1774890;79;21050;-70
2021/11/25 02:18:58;;;;;;;12.63;7.33;;;;;;;4.69;56.37;101216.92;1783857;78;21105;-68
2021/11/25 02:21:27;;;;;;;11.38;6.03;;;;;;;4.67;56.37;101220.89;1783968;78;21639;-65
2021/11/25 02:23:54;;;;;;;14.33;6.97;;;;;;;4.63;56.48;101213.66;1771571;80;21086;-68
2021/11/25 02:26:21;;;;;;;11.78;7.20;;;;;;;4.65;56.58;101219.66;1779543;79;21535;-67
2021/11/25 02:28:48;;;;;;;13.28;6.70;;;;;;;4.65;56.67;101220.95;1769064;79;21120;-68
2021/11/25 02:31:14;;;;;;;12.63;6.92;;;;;;;4.63;56.64;101214.96;1778183;80;21050;-67
2021/11/25 02:33:41;;;;;;;11.20;6.78;;;;;;;4.63;56.74;101218.03;1780567;79;21409;-67
2021/11/25 02:36:08;;;;;;;11.70;6.85;;;;;;;4.62;56.71;101221.11;1749432;81;21058;-68
2021/11/25 02:38:36;;;;;;;11.05;6.55;;;;;;;4.61;56.85;101217.27;1747646;79;21113;-67
2021/11/25 02:41:02;;;;;;;12.35;7.47;;;;;;;4.61;56.88;101216.80;1753892;79;21081;-70
2021/11/25 02:43:31;;;;;;;11.95;7.35;;;;;;;4.60;56.85;101208.56;1772092;77;21042;-68
2021/11/25 02:46:00;;;;;;;10.93;7.03;;;;;;;4.59;56.96;101220.36;1812259;77;21102;-67
2021/11/25 02:48:30;;;;;;;11.45;7.12;;;;;;;4.57;56.98;101208.73;1807915;77;21773;-66
2021/11/25 02:50:59;;;;;;;10.58;6.10;;;;;;;4.55;57.07;101201.40;1767926;78;21026;-67
2021/11/25 02:53:31;;;;;;;14.58;7.10;;;;;;;4.54;57.23;101208.84;1800632;78;21327;-68
2021/11/25 02:56:06;;;;;;;12.33;6.55;;;;;;;4.55;57.22;101202.70;1757127;78;21110;-67
2021/11/25 02:58:32;;;;;;;13.08;7.28;;;;;;;4.53;57.26;101203.23;1764207;78;21493;-68
2021/11/25 03:01:07;;;;;;;14.78;7.67;;;;;;;4.52;57.30;101197.61;1740515;79;21606;-67
2021/11/25 03:03:33;;;;;;;12.28;8.18;;;;;;;4.52;57.28;101201.52;1775892;80;21011;-68
2021/11/25 03:06:00;;;;;;;12.30;6.83;;;;;;;4.51;57.26;101200.31;1770245;80;21519;-68
2021/11/25 03:08:26;;;;;;;12.13;6.62;;;;;;;4.49;57.40;101194.30;1787457;78;21066;-66
2021/11/25 03:11:06;;;;;;;12.13;7.12;;;;;;;4.50;57.45;101200.75;1783944;79;21053;-66
2021/11/25 03:13:34;;;;;;;13.08;7.97;;;;;;;4.49;57.53;101195.16;1789893;79;21062;-69
2021/11/25 03:16:01;;;;;;;12.18;7.20;;;;;;;4.47;57.59;101198.27;1784903;79;21049;-67
2021/11/25 03:18:29;;;;;;;12.23;7.20;;;;;;;4.47;57.74;101198.27;1782248;77;21699;-68
2021/11/25 03:20:56;;;;;;;15.55;7.37;;;;;;;4.50;57.70;101202.52;1779972;78;20982;-68
2021/11/25 03:23:27;;;;;;;12.95;7.60;;;;;;;4.51;57.65;101205.06;1803361;77;21085;-68
2021/11/25 03:25:54;;;;;;;12.23;7.22;;;;;;;4.50;57.68;101197.30;1767229;80;21008;-68
2021/11/25 03:28:21;;;;;;;12.47;6.83;;;;;;;4.49;57.71;101204.28;1782427;79;21149;-68
2021/11/25 03:30:54;;;;;;;10.25;6.45;;;;;;;4.48;57.78;101197.83;1753618;80;21136;-71
2021/11/25 03:33:18;;;;;;;13.88;7.78;;;;;;;4.47;57.89;101200.87;1779644;78;21062;-67
2021/11/25 03:35:45;;;;;;;13.32;7.95;;;;;;;4.49;57.89;101194.30;1818553;77;21124;-68
2021/11/25 03:38:11;;;;;;;10.75;6.33;;;;;;;4.50;57.83;101186.41;1806674;78;21161;-68
2021/11/25 03:40:38;;;;;;;10.30;6.53;;;;;;;4.51;57.91;101184.67;1780842;78;21096;-68
2021/11/25 03:43:05;;;;;;;12.58;6.80;;;;;;;4.53;57.89;101186.75;1734573;80;21074;-68
2021/11/25 03:45:32;;;;;;;12.10;6.87;;;;;;;4.53;57.88;101181.54;1744321;80;21089;-68
2021/11/25 03:47:59;;;;;;;13.00;7.08;;;;;;;4.51;57.93;101184.21;1777181;79;20995;-68
2021/11/25 03:50:26;;;;;;;11.78;6.37;;;;;;;4.53;58.02;101181.08;1784470;79;21041;-66
2021/11/25 03:52:52;;;;;;;11.93;7.33;;;;;;;4.54;58.12;101189.30;1755354;78;21053;-69
2021/11/25 03:55:19;;;;;;;11.43;7.15;;;;;;;4.55;57.90;101187.06;1753190;80;21553;-70
2021/11/25 03:57:47;;;;;;;12.43;7.20;;;;;;;4.53;58.02;101191.50;1804145;77;21489;-68
2021/11/25 04:00:18;;;;;;;13.10;7.40;;;;;;;4.52;58.09;101185.05;1777587;78;21605;-68
2021/11/25 04:02:45;;;;;;;16.87;7.90;;;;;;;4.52;58.17;101185.88;1802175;78;21100;-66
2021/11/25 04:05:14;;;;;;;10.63;6.85;;;;;;;4.58;58.20;101184.34;1804479;78;21054;-66
2021/11/25 04:07:41;;;;;;;11.00;7.08;;;;;;;4.71;58.06;101183.80;1801508;77;21119;-63
2021/11/25 04:10:09;;;;;;;13.38;6.53;;;;;;;4.84;57.80;101179.75;1802905;77;21594;-66
2021/11/25 04:12:38;;;;;;;12.47;6.95;;;;;;;4.89;57.73;101177.80;1804706;77;21059;-67
2021/11/25 04:15:07;;;;;;;10.93;6.62;;;;;;;4.89;57.79;101179.09;1774225;80;21058;-63
2021/11/25 04:17:34;;;;;;;10.35;6.58;;;;;;;4.88;57.79;101187.02;1793096;78;21534;-65
2021/11/25 04:20:01;;;;;;;11.22;7.35;;;;;;;4.92;57.77;101182.88;1778326;79;21680;-64
2021/11/25 04:22:27;;;;;;;10.63;6.75;;;;;;;4.94;57.57;101184.99;1742455;78;22231;-65
2021/11/25 04:24:55;;;;;;;11.68;6.97;;;;;;;4.94;57.56;101180.21;1814327;77;21034;-67
2021/11/25 04:27:22;;;;;;;11.00;6.75;;;;;;;4.93;57.44;101179.37;1806092;77;21078;-64
2021/11/25 04:30:00;;;;;;;12.75;7.40;;;;;;;4.90;57.42;101188.63;1799197;78;21085;-65
2021/11/25 04:37:53;;;;;;;8.98;6.12;;;;;;;4.80;57.84;101178.21;1769140;79;21078;-65
2021/11/25 04:40:19;;;;;;;12.58;6.83;;;;;;;4.79;57.99;101177.81;1774553;80;21055;-67
2021/11/25 04:42:46;;;;;;;11.38;7.03;;;;;;;4.78;57.98;101169.61;1762053;80;21113;-66
2021/11/25 04:45:13;;;;;;;12.40;7.00;;;;;;;4.76;57.97;101174.05;1778208;79;21156;-66
2021/11/25 04:47:41;;;;;;;10.43;6.85;;;;;;;4.75;58.02;101167.13;1772096;78;21000;-65
2021/11/25 04:50:08;;;;;;;11.75;6.50;;;;;;;4.75;58.05;101173.66;1775651;80;21544;-68
2021/11/25 04:52:36;;;;;;;12.53;7.20;;;;;;;4.74;58.13;101171.95;1779275;80;21062;-67
2021/11/25 04:55:03;;;;;;;12.85;7.40;;;;;;;4.71;58.24;101166.42;1806869;78;21041;-65
2021/11/25 04:57:33;;;;;;;11.12;7.03;;;;;;;4.72;58.32;101171.17;1802697;78;21147;-66
2021/11/25 05:00:00;;;;;;;13.45;7.05;;;;;;;4.73;58.19;101175.48;1774911;78;21034;-64
2021/11/25 05:02:27;;;;;;;12.30;6.87;;;;;;;4.72;58.28;101171.17;1769675;80;21069;-63
2021/11/25 05:04:53;;;;;;;13.00;8.08;;;;;;;4.72;58.37;101174.61;1776202;78;21139;-65
2021/11/25 05:07:20;;;;;;;11.08;7.00;;;;;;;4.73;58.33;101163.75;1746155;80;21237;-64
2021/11/25 05:09:48;;;;;;;11.73;7.40;;;;;;;4.73;58.35;101167.66;1798509;77;21199;-68
2021/11/25 05:12:14;;;;;;;12.65;8.28;;;;;;;4.71;58.39;101169.03;1774421;79;21062;-66
2021/11/25 05:14:42;;;;;;;12.45;7.60;;;;;;;4.71;58.44;101167.73;1770722;78;21053;-68
2021/11/25 05:17:09;;;;;;;12.95;7.75;;;;;;;4.73;58.42;101167.20;1759209;80;21066;-65
2021/11/25 05:19:37;;;;;;;12.65;7.67;;;;;;;4.73;58.47;101158.07;1782326;79;21140;-67
2021/11/25 05:22:04;;;;;;;12.80;8.30;;;;;;;4.74;58.47;101166.30;1767215;79;21552;-68
2021/11/25 05:24:32;;;;;;;13.45;7.60;;;;;;;4.74;58.41;101169.34;1773327;80;21722;-69
2021/11/25 05:26:59;;;;;;;10.85;6.80;;;;;;;4.72;58.41;101172.47;1769541;80;21055;-66
2021/11/25 05:29:25;;;;;;;12.28;7.35;;;;;;;4.72;58.55;101175.92;1773708;80;21336;-66
2021/11/25 05:31:51;;;;;;;14.40;8.00;;;;;;;4.72;58.60;101167.26;1769799;80;21011;-65
2021/11/25 05:34:18;;;;;;;12.55;7.87;;;;;;;4.78;58.56;101169.61;1769004;80;21251;-68
2021/11/25 05:36:45;;;;;;;16.85;7.03;;;;;;;4.93;58.28;101172.85;1775399;80;21133;-67
2021/11/25 05:39:12;;;;;;;11.73;6.05;;;;;;;5.03;58.18;101161.09;1769649;80;21095;-67
2021/11/25 05:41:39;;;;;;;13.05;8.38;;;;;;;5.12;57.99;101168.13;1772185;80;21505;-65
2021/11/25 05:44:08;;;;;;;12.50;8.10;;;;;;;5.15;57.94;101162.78;1772165;79;21057;-64
2021/11/25 05:46:35;;;;;;;13.30;7.10;;;;;;;5.15;57.82;101162.31;1771422;80;21181;-66
2021/11/25 05:49:02;;;;;;;11.25;7.22;;;;;;;5.13;57.77;101165.45;1745628;80;21073;-70
2021/11/25 05:51:29;;;;;;;14.33;8.48;;;;;;;5.12;57.85;101169.43;1786614;78;21613;-73
2021/11/25 05:53:55;;;;;;;13.90;7.55;;;;;;;5.08;57.88;101163.51;1767851;80;21143;-73
2021/11/25 05:56:22;;;;;;;12.43;7.40;;;;;;;5.05;57.92;101172.77;1772788;79;21560;-77
2021/11/25 05:58:50;;;;;;;12.40;6.75;;;;;;;5.00;57.98;101165.14;1769100;80;21206;-74
2021/11/25 06:01:16;;;;;;;11.20;6.87;;;;;;;5.01;58.00;101173.83;1751129;80;21125;-72
2021/11/25 06:03:46;;;;;;;9.98;6.60;;;;;;;4.98;58.06;101165.67;1772748;80;21093;-68
2021/11/25 06:06:13;;;;;;;11.93;7.62;;;;;;;4.97;58.15;101167.88;1750428;80;21049;-69
2021/11/25 06:08:41;;;;;;;12.82;7.08;;;;;;;4.97;58.01;101168.34;1773946;80;21007;-63
2021/11/25 06:11:08;;;;;;;13.43;7.80;;;;;;;4.94;58.08;101169.34;1769841;80;23386;-66
2021/11/25 06:13:34;;;;;;;11.85;7.20;;;;;;;4.93;58.11;101171.55;1768119;80;21091;-78
2021/11/25 06:16:01;;;;;;;11.95;6.85;;;;;;;4.91;58.14;101169.47;1770373;78;21572;-77
2021/11/25 06:18:29;;;;;;;13.05;7.40;;;;;;;4.89;58.01;101172.58;1766478;79;21081;-64
2021/11/25 06:20:56;;;;;;;13.25;7.67;;;;;;;4.87;58.21;101170.97;1765445;78;21123;-73
2021/11/25 06:23:23;;;;;;;13.32;6.92;;;;;;;4.88;58.20;101169.60;1771739;79;21583;-73
2021/11/25 06:25:50;;;;;;;12.85;7.65;;;;;;;4.87;58.30;101169.20;1770462;79;21042;-72
2021/11/25 06:28:18;;;;;;;15.85;8.50;;;;;;;4.88;58.28;101172.67;1745830;80;21691;-75
2021/11/25 06:30:44;;;;;;;11.90;7.78;;;;;;;4.85;58.30;101171.03;1771145;80;21085;-69
2021/11/25 06:33:11;;;;;;;16.23;8.15;;;;;;;4.83;58.26;101163.27;1770853;80;21767;-75
2021/11/25 06:35:38;;;;;;;14.65;7.60;;;;;;;4.84;58.43;101169.33;1769474;79;21855;-74
2021/11/25 06:38:05;;;;;;;11.45;7.50;;;;;;;4.87;58.31;101171.80;1763783;79;21097;-70
2021/11/25 06:40:33;;;;;;;15.75;8.70;;;;;;;4.86;58.28;101165.35;1774889;80;21637;-70
2021/11/25 06:43:04;;;;;;;13.22;7.80;;;;;;;4.83;58.31;101163.74;1755400;80;21576;-71
2021/11/25 06:45:30;;;;;;;12.68;7.58;;;;;;;4.83;58.38;101173.70;1748015;81;21120;-76
2021/11/25 06:47:57;;;;;;;17.52;9.15;;;;;;;4.82;58.40;101168.55;1741117;80;21319;-73
2021/11/25 06:50:24;;;;;;;16.80;9.45;;;;;;;4.81;58.42;101169.02;1760338;80;21666;-68
2021/11/25 06:52:52;;;;;;;12.60;8.63;;;;;;;4.82;58.49;101169.86;1729936;81;21645;-72
2021/11/25 06:55:19;;;;;;;13.48;8.80;;;;;;;4.83;58.53;101174.17;1780244;78;21567;-74
2021/11/25 06:57:48;;;;;;;14.78;9.03;;;;;;;4.86;58.44;101176.66;1768549;79;21124;-72
2021/11/25 07:00:18;;;;;;;16.23;9.80;;;;;;;4.86;58.53;101174.05;1759040;80;21171;-72
2021/11/25 07:02:45;;;;;;;14.15;8.13;;;;;;;4.89;58.47;101175.66;1783194;78;21132;-67
2021/11/25 07:05:11;;;;;;;13.90;8.53;;;;;;;4.91;58.43;101173.38;1759971;79;21073;-69
2021/11/25 07:07:38;;;;;;;12.23;8.08;;;;;;;4.93;58.36;101167.64;1766330;79;21204;-71
2021/11/25 07:10:08;;;;;;;11.85;7.95;;;;;;;4.94;58.22;101170.65;1743385;80;21081;-70
2021/11/25 07:12:36;;;;;;;14.78;8.58;;;;;;;4.94;58.30;101169.78;1772342;80;21866;-68
2021/11/25 07:15:04;;;;;;;14.13;9.10;;;;;;;4.93;58.38;101168.94;1774582;80;21093;-71
2021/11/25 07:17:33;;;;;;;13.65;8.60;;;;;;;4.95;58.33;101172.79;1775624;79;21058;-69
2021/11/25 07:20:02;;;;;;;15.23;9.08;;;;;;;4.95;58.28;101176.70;1773842;80;21089;-69
2021/11/25 07:22:29;;;;;;;14.30;8.75;;;;;;;4.95;58.35;101176.23;1775203;79;21222;-59
2021/11/25 07:24:56;;;;;;;14.30;8.53;;;;;;;4.95;58.36;101181.45;1770866;80;21112;-68
2021/11/25 07:27:23;;;;;;;15.30;7.90;;;;;;;5.00;58.33;101175.57;1765517;80;21053;-67
2021/11/25 07:29:51;;;;;;;19.52;9.43;;;;;;;5.13;58.23;101175.05;1762315;79;21086;-70
2021/11/25 07:32:19;;;;;;;12.58;8.35;;;;;;;5.25;58.13;101175.80;1767904;79;21531;-68
2021/11/25 07:34:46;;;;;;;16.90;9.10;;;;;;;5.32;57.99;101181.11;1772009;80;21171;-66
2021/11/25 07:37:14;;;;;;;16.40;8.53;;;;;;;5.36;57.77;101180.08;1777779;78;21288;-69
2021/11/25 07:39:42;;;;;;;15.05;9.03;;;;;;;5.34;57.76;101179.74;1760423;79;21113;-68
2021/11/25 07:42:09;;;;;;;16.30;8.55;;;;;;;5.31;57.70;101182.05;1764299;79;21054;-68
2021/11/25 07:44:36;;;;;;;15.65;8.85;;;;;;;5.30;57.83;101176.43;1742549;80;21011;-66
2021/11/25 07:47:03;;;;;;;14.87;8.63;;;;;;;5.29;57.88;101177.80;1786584;80;21053;-69
2021/11/25 07:49:30;;;;;;;16.10;9.43;;;;;;;5.30;58.00;101184.26;1761654;79;22277;-68
2021/11/25 07:51:59;;;;;;;21.12;11.28;;;;;;;5.32;57.87;101175.06;1762339;80;21694;-70
2021/11/25 07:54:27;;;;;;;17.42;9.15;;;;;;;5.31;57.90;101179.44;1772045;80;21541;-73
2021/11/25 07:56:59;;;;;;;15.35;9.40;;;;;;;5.29;57.88;101180.41;1775353;79;21184;-70
2021/11/25 07:59:26;;;;;;;17.37;9.73;;;;;;;5.28;57.89;101181.31;1773635;80;21030;-68
2021/11/25 08:01:53;;;;;;;14.78;10.03;;;;;;;5.26;57.94;101182.72;1748469;80;21095;-70
2021/11/25 08:04:21;;;;;;;16.65;8.80;;;;;;;5.27;58.14;101185.70;1772964;79;21046;-72
2021/11/25 08:06:48;;;;;;;19.20;10.45;;;;;;;5.29;58.11;101182.55;1786240;80;21072;-67
2021/11/25 08:09:16;;;;;;;14.95;9.48;;;;;;;5.27;57.99;101176.56;1759138;80;21660;-67
2021/11/25 08:11:43;;;;;;;15.78;9.73;;;;;;;5.26;58.19;101184.02;1738250;80;21093;-68
2021/11/25 08:14:10;;;;;;;16.93;10.68;;;;;;;5.27;58.27;101184.39;1736612;80;21035;-68
2021/11/25 08:16:38;;;;;;;14.45;9.80;;;;;;;5.29;58.18;101173.42;1759031;79;21557;-71
2021/11/25 08:19:06;;;;;;;19.80;9.78;;;;;;;5.30;58.11;101176.90;1760273;79;21047;-70
2021/11/25 08:21:34;;;;;;;18.70;12.58;;;;;;;5.29;58.06;101168.67;1743831;79;21125;-67
2021/11/25 08:24:01;;;;;;;18.40;12.40;;;;;;;5.28;58.09;101174.36;1792395;77;21007;-71
2021/11/25 08:26:28;;;;;;;16.32;10.05;;;;;;;5.26;58.14;101167.06;1795238;77;21026;-68
2021/11/25 08:28:55;;;;;;;16.70;10.53;;;;;;;5.24;58.31;101167.56;1792567;78;21092;-71
2021/11/25 08:31:22;;;;;;;16.32;10.48;;;;;;;5.26;58.40;101170.11;1793907;78;21150;-66
2021/11/25 08:33:49;;;;;;;14.20;9.43;;;;;;;5.26;58.40;101167.50;1792128;77;21094;-72
2021/11/25 08:36:16;;;;;;;18.07;11.53;;;;;;;5.30;58.52;101172.52;1787979;77;21014;-70
2021/11/25 08:38:43;;;;;;;16.45;11.38;;;;;;;5.32;58.43;101165.45;1804365;77;21942;-69
2021/11/25 08:41:10;;;;;;;15.18;11.55;;;;;;;5.35;58.39;101161.88;1782046;78;21114;-68
2021/11/25 08:43:37;;;;;;;18.55;11.53;;;;;;;5.37;58.27;101162.64;1793454;78;21038;-63
2021/11/25 08:46:05;;;;;;;20.17;11.63;;;;;;;5.37;58.18;101162.17;1783944;78;21695;-71
2021/11/25 08:48:33;;;;;;;15.63;10.60;;;;;;;5.39;58.25;101160.80;1788044;78;21015;-67
2021/11/25 08:50:59;;;;;;;17.55;10.23;;;;;;;5.42;58.37;101159.36;1766862;79;21147;-70
2021/11/25 08:53:26;;;;;;;19.87;12.55;;;;;;;5.44;58.30;101154.08;1779435;80;21061;-68
2021/11/25 08:55:53;;;;;;;29.25;21.20;;;;;;;5.48;58.35;101159.09;1773087;80;21106;-70
2021/11/25 08:58:20;;;;;;;18.85;11.70;;;;;;;5.62;58.16;101151.08;1772134;80;21624;-71
2021/11/25 09:00:48;;;;;;;17.23;11.35;;;;;;;5.74;58.14;101152.63;1773640;79;21070;-70
2021/11/25 09:03:16;;;;;;;17.25;11.03;;;;;;;5.82;57.81;101140.99;1779744;79;21063;-68
2021/11/25 09:05:43;;;;;;;21.05;14.35;;;;;;;5.84;57.65;101141.76;1779669;80;21121;-69
2021/11/25 09:08:10;;;;;;;21.48;13.18;;;;;;;5.83;57.52;101142.66;1778578;79;21586;-71
2021/11/25 09:10:39;;;;;;;19.52;10.10;;;;;;;5.81;57.63;101137.98;1773706;79;21113;-69
2021/11/25 09:13:05;;;;;;;15.32;10.63;;;;;;;5.80;57.86;101136.28;1752349;80;21078;-69
2021/11/25 09:15:38;;;;;;;18.85;12.20;;;;;;;5.81;57.79;101134.91;1777046;80;20983;-67
2021/11/25 09:18:04;;;;;;;17.52;10.15;;;;;;;5.80;57.88;101125.39;1751775;79;21085;-68
2021/11/25 09:20:33;;;;;;;16.17;10.13;;;;;;;5.78;57.56;101121.98;1773888;79;21129;-72
2021/11/25 09:23:05;;;;;;;16.40;9.53;;;;;;;5.77;57.65;101119.84;1777898;79;21074;-72
2021/11/25 09:25:32;;;;;;;18.65;12.47;;;;;;;5.76;57.72;101112.92;1776905;80;21496;-70
2021/11/25 09:28:02;;;;;;;18.05;10.82;;;;;;;5.76;57.62;101110.30;1773660;79;22306;-69
2021/11/25 09:30:29;;;;;;;17.10;10.55;;;;;;;5.74;57.72;101106.93;1775048;79;21085;-71
2021/11/25 09:32:57;;;;;;;19.12;10.70;;;;;;;5.76;57.65;101106.86;1748379;80;21434;-71
2021/11/25 09:35:23;;;;;;;23.65;12.43;;;;;;;5.76;57.59;101106.39;1775384;79;21038;-69
2021/11/25 09:37:51;;;;;;;19.32;11.90;;;;;;;5.76;57.68;101108.16;1776382;79;21041;-72
2021/11/25 09:40:22;;;;;;;22.90;10.90;;;;;;;5.78;57.83;101110.23;1779736;79;21703;-69
2021/11/25 09:42:57;;;;;;;17.02;10.43;;;;;;;5.77;57.68;101112.01;1775398;79;21101;-71
2021/11/25 09:45:24;;;;;;;18.25;10.53;;;;;;;5.76;57.49;101110.30;1807245;77;21096;-70
2021/11/25 09:48:01;;;;;;;15.55;10.43;;;;;;;5.74;57.72;101112.16;1801799;77;21074;-66
2021/11/25 09:50:30;;;;;;;24.32;12.47;;;;;;;5.73;57.60;101100.47;1771473;78;21058;-69
2021/11/25 09:52:59;;;;;;;16.35;10.55;;;;;;;5.71;57.55;101107.07;1802175;77;21046;-69
2021/11/25 09:55:26;;;;;;;13.88;9.08;;;;;;;5.67;57.88;101096.41;1783503;78;21093;-72
2021/11/25 09:57:52;;;;;;;16.97;10.03;;;;;;;5.67;57.80;101101.63;1753311;78;21082;-66
2021/11/25 10:00:21;;;;;;;19.00;11.25;;;;;;;5.67;57.78;101101.63;1804427;77;21035;-68
2021/11/25 10:02:49;;;;;;;15.30;10.15;;;;;;;5.69;57.77;101094.55;1783191;79;21199;-64
2021/11/25 10:05:15;;;;;;;16.30;11.28;;;;;;;5.68;57.81;101090.27;1763263;78;21727;-67
2021/11/25 10:07:45;;;;;;;14.95;10.40;;;;;;;5.66;57.70;101089.48;1782767;78;21066;-63
2021/11/25 10:10:31;;;;;;;17.23;10.48;;;;;;;5.66;57.76;101080.80;1780915;78;21591;-64
2021/11/25 10:13:15;;;;;;;14.83;10.68;;;;;;;5.66;57.70;101082.95;1774233;78;21061;-68
2021/11/25 10:15:44;;;;;;;15.98;11.10;;;;;;;5.65;57.87;101083.02;1747822;80;21091;-68
2021/11/25 10:18:13;;;;;;;19.75;10.90;;;;;;;5.64;57.83;101086.09;1799742;77;21812;-69
2021/11/25 10:20:50;;;;;;;15.70;10.63;;;;;;;5.65;58.04;101076.49;1779308;78;21128;-68
2021/11/25 10:23:26;;;;;;;16.50;10.08;;;;;;;5.67;58.07;101070.76;1800904;78;21345;-68
2021/11/25 10:26:00;;;;;;;15.65;10.75;;;;;;;5.70;58.09;101063.62;1752766;79;21421;-66
2021/11/25 10:28:43;;;;;;;16.60;9.80;;;;;;;5.72;57.97;101065.69;1805865;78;21148;-65
2021/11/25 10:31:20;;;;;;;17.57;9.48;;;;;;;5.73;57.87;101057.38;1803484;77;21193;-62
2021/11/25 10:34:02;;;;;;;13.35;8.45;;;;;;;5.73;57.63;101058.25;1751149;79;21071;-65
2021/11/25 10:36:50;;;;;;;18.52;10.03;;;;;;;5.72;57.64;101053.10;1785917;78;21014;-66
2021/11/25 10:39:27;;;;;;;14.38;8.73;;;;;;;5.70;57.80;101045.34;1805738;77;21105;-67
2021/11/25 10:41:46;;;;;;;15.10;8.98;;;;;;;5.73;57.45;101039.97;1777032;78;21034;-69
2021/11/25 10:44:18;;;;;;;15.58;8.53;;;;;;;5.73;57.42;101039.97;1781526;78;23251;-68
2021/11/25 10:46:51;;;;;;;15.50;8.90;;;;;;;5.73;57.43;101032.58;1782383;79;21093;-72
2021/11/25 10:49:17;;;;;;;14.20;8.45;;;;;;;5.74;57.52;101024.67;1808801;78;21069;-64
2021/11/25 10:51:44;;;;;;;14.15;9.35;;;;;;;5.78;57.61;101027.97;1749771;79;21117;-67
2021/11/25 10:54:17;;;;;;;16.40;9.05;;;;;;;5.83;57.18;101027.75;1753106;79;21713;-70
2021/11/25 10:56:48;;;;;;;14.50;9.35;;;;;;;5.87;56.98;101021.47;1802391;78;21113;-70
2021/11/25 10:59:19;;;;;;;14.55;8.23;;;;;;;5.89;56.72;101019.62;1803975;77;21309;-71
2021/11/25 11:01:50;;;;;;;13.43;7.92;;;;;;;5.89;56.97;101017.01;1805328;77;21054;-66
2021/11/25 11:04:18;;;;;;;13.65;7.80;;;;;;;5.93;56.71;101018.53;1807458;77;21074;-69
2021/11/25 11:06:44;;;;;;;15.60;8.13;;;;;;;5.96;56.47;101014.49;1809877;77;21074;-67
2021/11/25 11:09:39;;;;;;;15.90;9.00;;;;;;;5.96;56.55;101006.66;1805201;77;21081;-62
2021/11/25 11:12:30;;;;;;;15.18;8.23;;;;;;;5.97;56.55;101000.52;1802136;78;21501;-70
2021/11/25 11:14:56;;;;;;;13.62;7.37;;;;;;;6.01;56.34;101003.81;1781657;77;21516;-69
2021/11/25 11:17:30;;;;;;;14.13;8.43;;;;;;;6.00;56.01;100994.28;1784836;79;21069;-69
2021/11/25 11:20:13;;;;;;;13.13;7.85;;;;;;;6.01;56.13;100986.36;1776831;79;21113;-71
2021/11/25 11:22:40;;;;;;;13.93;6.85;;;;;;;6.05;56.18;100980.08;1780934;79;21081;-70
2021/11/25 11:25:09;;;;;;;18.55;7.78;;;;;;;6.08;55.22;100976.44;1781047;78;21080;-68
2021/11/25 11:27:37;;;;;;;12.18;6.65;;;;;;;6.07;55.07;100976.91;1773858;80;21097;-71
2021/11/25 11:30:06;;;;;;;13.25;7.33;;;;;;;6.07;55.02;100973.00;1786783;78;21054;-67
2021/11/25 11:32:33;;;;;;;20.20;10.70;;;;;;;6.10;54.69;100968.05;1809122;77;21030;-71
2021/11/25 11:35:00;;;;;;;12.95;7.53;;;;;;;6.13;54.76;100966.13;1779578;78;21019;-68
2021/11/25 11:37:26;;;;;;;12.58;7.80;;;;;;;6.14;54.24;100965.21;1809405;78;21293;-66